sensor_id;sensor_type;location;lat;lon;timestamp;temperature;humidity
48768;DHT22;34933;40.968;14.538;2023-12-04T00:00:53;10.60;99.90
48768;DHT22;34933;40.968;14.538;2023-12-04T00:03:38;10.60;99.90
48768;DHT22;34933;40.968;14.538;2023-12-04T00:06:23;10.50;99.90
48768;DHT22;34933;40.968;14.538;2023-12-04T00:09:08;10.40;99.90
48768;DHT22;34933;40.968;14.538;2023-12-04T00:11:52;10.40;99.90
48768;DHT22;34933;40.968;14.538;2023-12-04T00:14:37;10.30;99.90
48768;DHT22;34933;40.968;14.538;2023-12-04T00:17:22;10.30;99.90
48768;DHT22;34933;40.968;14.538;2023-12-04T00:20:07;10.40;99.90
48768;DHT22;34933;40.968;14.538;2023-12-04T00:22:53;10.40;99.90
48768;DHT22;34933;40.968;14.538;2023-12-04T00:25:38;10.40;99.90
48768;DHT22;34933;40.968;14.538;2023-12-04T00:28:24;10.20;99.90
48768;DHT22;34933;40.968;14.538;2023-12-04T00:31:09;10.20;99.90
48768;DHT22;34933;40.968;14.538;2023-12-04T00:33:55;10.20;99.90
48768;DHT22;34933;40.968;14.538;2023-12-04T00:36:39;10.30;99.90
48768;DHT22;34933;40.968;14.538;2023-12-04T00:39:24;10.30;99.90
48768;DHT22;34933;40.968;14.538;2023-12-04T00:42:08;10.20;99.90
48768;DHT22;34933;40.968;14.538;2023-12-04T00:44:53;10.10;99.90
48768;DHT22;34933;40.968;14.538;2023-12-04T00:47:38;10.20;99.90
48768;DHT22;34933;40.968;14.538;2023-12-04T00:50:22;10.10;99.90
48768;DHT22;34933;40.968;14.538;2023-12-04T00:53:07;10.10;99.90
48768;DHT22;34933;40.968;14.538;2023-12-04T00:55:52;10.00;99.90
48768;DHT22;34933;40.968;14.538;2023-12-04T00:58:36;10.20;99.90
48768;DHT22;34933;40.968;14.538;2023-12-04T01:01:22;10.10;99.90
48768;DHT22;34933;40.968;14.538;2023-12-04T01:04:07;10.10;99.90
48768;DHT22;34933;40.968;14.538;2023-12-04T01:06:52;10.00;99.90
48768;DHT22;34933;40.968;14.538;2023-12-04T01:09:37;10.00;99.90
48768;DHT22;34933;40.968;14.538;2023-12-04T01:12:21;10.00;99.90
48768;DHT22;34933;40.968;14.538;2023-12-04T01:15:06;10.00;99.90
48768;DHT22;34933;40.968;14.538;2023-12-04T01:17:51;9.90;99.90
48768;DHT22;34933;40.968;14.538;2023-12-04T01:20:36;9.90;99.90
48768;DHT22;34933;40.968;14.538;2023-12-04T01:23:21;9.80;99.90
48768;DHT22;34933;40.968;14.538;2023-12-04T01:26:05;9.80;99.90
48768;DHT22;34933;40.968;14.538;2023-12-04T01:28:50;9.70;99.90
48768;DHT22;34933;40.968;14.538;2023-12-04T01:31:35;9.60;99.90
48768;DHT22;34933;40.968;14.538;2023-12-04T01:34:19;9.50;99.90
48768;DHT22;34933;40.968;14.538;2023-12-04T01:37:04;9.50;99.90
48768;DHT22;34933;40.968;14.538;2023-12-04T01:39:49;9.60;99.90
48768;DHT22;34933;40.968;14.538;2023-12-04T01:42:33;9.50;99.90
48768;DHT22;34933;40.968;14.538;2023-12-04T01:45:18;9.50;99.90
48768;DHT22;34933;40.968;14.538;2023-12-04T01:48:04;9.50;99.90
48768;DHT22;34933;40.968;14.538;2023-12-04T01:50:50;9.30;99.90
48768;DHT22;34933;40.968;14.538;2023-12-04T01:53:36;9.10;99.90
48768;DHT22;34933;40.968;14.538;2023-12-04T01:56:23;8.90;99.90
48768;DHT22;34933;40.968;14.538;2023-12-04T01:59:07;8.80;99.90
48768;DHT22;34933;40.968;14.538;2023-12-04T02:01:53;8.90;99.90
48768;DHT22;34933;40.968;14.538;2023-12-04T02:04:38;9.00;99.90
48768;DHT22;34933;40.968;14.538;2023-12-04T02:07:23;8.90;99.90
48768;DHT22;34933;40.968;14.538;2023-12-04T02:10:08;8.80;99.90
48768;DHT22;34933;40.968;14.538;2023-12-04T02:12:53;8.80;99.90
48768;DHT22;34933;40.968;14.538;2023-12-04T02:15:38;8.80;99.90
48768;DHT22;34933;40.968;14.538;2023-12-04T02:18:23;8.80;99.90
48768;DHT22;34933;40.968;14.538;2023-12-04T02:21:08;8.90;99.90
48768;DHT22;34933;40.968;14.538;2023-12-04T02:23:53;8.90;99.90
48768;DHT22;34933;40.968;14.538;2023-12-04T02:26:52;9.20;99.90
48768;DHT22;34933;40.968;14.538;2023-12-04T02:29:44;9.40;99.90
48768;DHT22;34933;40.968;14.538;2023-12-04T02:32:36;9.40;99.90
48768;DHT22;34933;40.968;14.538;2023-12-04T02:35:23;9.60;99.90
48768;DHT22;34933;40.968;14.538;2023-12-04T02:38:10;9.70;99.90
48768;DHT22;34933;40.968;14.538;2023-12-04T02:40:55;9.80;99.90
48768;DHT22;34933;40.968;14.538;2023-12-04T02:43:39;9.90;99.90
48768;DHT22;34933;40.968;14.538;2023-12-04T02:46:24;9.90;99.90
48768;DHT22;34933;40.968;14.538;2023-12-04T02:49:09;9.90;99.90
48768;DHT22;34933;40.968;14.538;2023-12-04T02:51:53;10.00;99.90
48768;DHT22;34933;40.968;14.538;2023-12-04T02:54:38;10.00;99.90
48768;DHT22;34933;40.968;14.538;2023-12-04T02:57:23;10.00;99.90
48768;DHT22;34933;40.968;14.538;2023-12-04T03:00:08;10.00;99.90
48768;DHT22;34933;40.968;14.538;2023-12-04T03:02:52;9.90;99.90
48768;DHT22;34933;40.968;14.538;2023-12-04T03:05:37;10.00;99.90
48768;DHT22;34933;40.968;14.538;2023-12-04T03:08:22;9.90;99.90
48768;DHT22;34933;40.968;14.538;2023-12-04T03:11:07;9.80;99.90
48768;DHT22;34933;40.968;14.538;2023-12-04T03:13:51;9.90;99.90
48768;DHT22;34933;40.968;14.538;2023-12-04T03:16:36;9.90;99.90
48768;DHT22;34933;40.968;14.538;2023-12-04T03:19:21;9.80;99.90
48768;DHT22;34933;40.968;14.538;2023-12-04T03:22:05;10.00;99.90
48768;DHT22;34933;40.968;14.538;2023-12-04T03:24:50;9.90;99.90
48768;DHT22;34933;40.968;14.538;2023-12-04T03:27:35;9.70;99.90
48768;DHT22;34933;40.968;14.538;2023-12-04T03:30:20;9.60;99.90
48768;DHT22;34933;40.968;14.538;2023-12-04T03:33:04;9.70;99.90
48768;DHT22;34933;40.968;14.538;2023-12-04T03:35:49;9.60;99.90
48768;DHT22;34933;40.968;14.538;2023-12-04T03:38:34;9.70;99.90
48768;DHT22;34933;40.968;14.538;2023-12-04T03:41:19;9.80;99.90
48768;DHT22;34933;40.968;14.538;2023-12-04T03:44:03;9.80;99.90
48768;DHT22;34933;40.968;14.538;2023-12-04T03:46:48;9.60;99.90
48768;DHT22;34933;40.968;14.538;2023-12-04T03:49:33;9.50;99.90
48768;DHT22;34933;40.968;14.538;2023-12-04T03:52:18;9.60;99.90
48768;DHT22;34933;40.968;14.538;2023-12-04T03:55:03;9.60;99.90
48768;DHT22;34933;40.968;14.538;2023-12-04T03:57:48;9.90;99.90
48768;DHT22;34933;40.968;14.538;2023-12-04T04:00:32;9.80;99.90
48768;DHT22;34933;40.968;14.538;2023-12-04T04:03:17;9.90;99.90
48768;DHT22;34933;40.968;14.538;2023-12-04T04:06:02;9.90;99.90
48768;DHT22;34933;40.968;14.538;2023-12-04T04:08:46;9.70;99.90
48768;DHT22;34933;40.968;14.538;2023-12-04T04:11:31;9.50;99.90
48768;DHT22;34933;40.968;14.538;2023-12-04T04:14:15;9.50;99.90
48768;DHT22;34933;40.968;14.538;2023-12-04T04:17:00;9.60;99.90
48768;DHT22;34933;40.968;14.538;2023-12-04T04:19:45;9.70;99.90
48768;DHT22;34933;40.968;14.538;2023-12-04T04:22:30;9.60;99.90
48768;DHT22;34933;40.968;14.538;2023-12-04T04:25:15;9.50;99.90
48768;DHT22;34933;40.968;14.538;2023-12-04T04:28:00;9.50;99.90
48768;DHT22;34933;40.968;14.538;2023-12-04T04:30:44;9.50;99.90
48768;DHT22;34933;40.968;14.538;2023-12-04T04:33:29;9.50;99.90
48768;DHT22;34933;40.968;14.538;2023-12-04T04:36:14;9.30;99.90
48768;DHT22;34933;40.968;14.538;2023-12-04T04:38:59;9.30;99.90
48768;DHT22;34933;40.968;14.538;2023-12-04T04:41:44;9.30;99.90
48768;DHT22;34933;40.968;14.538;2023-12-04T04:44:29;9.40;99.90
48768;DHT22;34933;40.968;14.538;2023-12-04T04:47:14;9.30;99.90
48768;DHT22;34933;40.968;14.538;2023-12-04T04:49:58;9.20;99.90
48768;DHT22;34933;40.968;14.538;2023-12-04T04:52:43;9.20;99.90
48768;DHT22;34933;40.968;14.538;2023-12-04T04:55:27;9.10;99.90
48768;DHT22;34933;40.968;14.538;2023-12-04T04:58:12;9.00;99.90
48768;DHT22;34933;40.968;14.538;2023-12-04T05:00:57;8.80;99.90
48768;DHT22;34933;40.968;14.538;2023-12-04T05:03:41;8.60;99.90
48768;DHT22;34933;40.968;14.538;2023-12-04T05:06:26;8.40;99.90
48768;DHT22;34933;40.968;14.538;2023-12-04T05:09:11;8.30;99.90
48768;DHT22;34933;40.968;14.538;2023-12-04T05:11:55;8.20;99.90
48768;DHT22;34933;40.968;14.538;2023-12-04T05:14:40;8.20;99.90
48768;DHT22;34933;40.968;14.538;2023-12-04T05:17:25;8.10;99.90
48768;DHT22;34933;40.968;14.538;2023-12-04T05:20:09;8.00;99.90
48768;DHT22;34933;40.968;14.538;2023-12-04T05:22:54;8.00;99.90
48768;DHT22;34933;40.968;14.538;2023-12-04T05:25:39;8.10;99.90
48768;DHT22;34933;40.968;14.538;2023-12-04T05:28:23;8.00;99.90
48768;DHT22;34933;40.968;14.538;2023-12-04T05:31:08;7.80;99.90
48768;DHT22;34933;40.968;14.538;2023-12-04T05:33:53;7.70;99.90
48768;DHT22;34933;40.968;14.538;2023-12-04T05:36:37;7.60;99.90
48768;DHT22;34933;40.968;14.538;2023-12-04T05:39:22;7.60;99.90
48768;DHT22;34933;40.968;14.538;2023-12-04T05:42:06;7.60;99.90
48768;DHT22;34933;40.968;14.538;2023-12-04T05:44:52;7.60;99.90
48768;DHT22;34933;40.968;14.538;2023-12-04T05:47:39;7.60;99.90
48768;DHT22;34933;40.968;14.538;2023-12-04T05:50:24;7.80;99.90
48768;DHT22;34933;40.968;14.538;2023-12-04T05:53:08;7.80;99.90
48768;DHT22;34933;40.968;14.538;2023-12-04T05:55:53;7.70;99.90
48768;DHT22;34933;40.968;14.538;2023-12-04T05:58:38;7.50;99.90
48768;DHT22;34933;40.968;14.538;2023-12-04T06:01:22;7.40;99.90
48768;DHT22;34933;40.968;14.538;2023-12-04T06:04:07;7.20;99.90
48768;DHT22;34933;40.968;14.538;2023-12-04T06:06:52;7.10;99.90
48768;DHT22;34933;40.968;14.538;2023-12-04T06:09:36;7.10;99.90
48768;DHT22;34933;40.968;14.538;2023-12-04T06:12:21;6.90;99.90
48768;DHT22;34933;40.968;14.538;2023-12-04T06:15:07;6.90;99.90
48768;DHT22;34933;40.968;14.538;2023-12-04T06:17:51;6.80;99.90
48768;DHT22;34933;40.968;14.538;2023-12-04T06:20:36;6.90;99.90
48768;DHT22;34933;40.968;14.538;2023-12-04T06:23:21;6.70;99.90
48768;DHT22;34933;40.968;14.538;2023-12-04T06:26:06;6.70;99.90
48768;DHT22;34933;40.968;14.538;2023-12-04T06:28:51;6.70;99.90
48768;DHT22;34933;40.968;14.538;2023-12-04T06:31:36;6.70;99.90
48768;DHT22;34933;40.968;14.538;2023-12-04T06:34:22;6.70;99.90
48768;DHT22;34933;40.968;14.538;2023-12-04T06:37:12;6.70;99.90
48768;DHT22;34933;40.968;14.538;2023-12-04T06:39:59;6.80;99.90
48768;DHT22;34933;40.968;14.538;2023-12-04T06:42:47;6.90;99.90
48768;DHT22;34933;40.968;14.538;2023-12-04T06:45:32;7.10;99.90
48768;DHT22;34933;40.968;14.538;2023-12-04T06:48:17;7.20;99.90
48768;DHT22;34933;40.968;14.538;2023-12-04T06:51:02;7.30;99.90
48768;DHT22;34933;40.968;14.538;2023-12-04T06:53:46;7.40;99.90
48768;DHT22;34933;40.968;14.538;2023-12-04T06:56:31;7.40;99.90
48768;DHT22;34933;40.968;14.538;2023-12-04T06:59:16;7.50;99.90
48768;DHT22;34933;40.968;14.538;2023-12-04T07:02:01;7.60;99.90
48768;DHT22;34933;40.968;14.538;2023-12-04T07:04:45;7.70;99.90
48768;DHT22;34933;40.968;14.538;2023-12-04T07:07:30;7.70;99.90
48768;DHT22;34933;40.968;14.538;2023-12-04T07:10:15;7.80;99.90
48768;DHT22;34933;40.968;14.538;2023-12-04T07:12:59;7.80;99.90
48768;DHT22;34933;40.968;14.538;2023-12-04T07:15:44;7.80;99.90
48768;DHT22;34933;40.968;14.538;2023-12-04T07:18:29;7.90;99.90
48768;DHT22;34933;40.968;14.538;2023-12-04T07:21:13;8.00;99.90
48768;DHT22;34933;40.968;14.538;2023-12-04T07:23:58;8.00;99.90
48768;DHT22;34933;40.968;14.538;2023-12-04T07:26:43;8.10;99.90
48768;DHT22;34933;40.968;14.538;2023-12-04T07:29:27;8.20;99.90
48768;DHT22;34933;40.968;14.538;2023-12-04T07:32:13;8.20;99.90
48768;DHT22;34933;40.968;14.538;2023-12-04T07:34:57;8.30;99.90
48768;DHT22;34933;40.968;14.538;2023-12-04T07:37:43;8.50;99.90
48768;DHT22;34933;40.968;14.538;2023-12-04T07:40:27;8.70;99.90
48768;DHT22;34933;40.968;14.538;2023-12-04T07:43:12;8.80;99.90
48768;DHT22;34933;40.968;14.538;2023-12-04T07:45:58;9.00;99.90
48768;DHT22;34933;40.968;14.538;2023-12-04T07:48:43;9.20;99.90
48768;DHT22;34933;40.968;14.538;2023-12-04T07:51:30;9.30;99.90
48768;DHT22;34933;40.968;14.538;2023-12-04T07:54:14;9.50;99.90
48768;DHT22;34933;40.968;14.538;2023-12-04T07:56:59;9.60;99.90
48768;DHT22;34933;40.968;14.538;2023-12-04T07:59:44;9.80;99.90
48768;DHT22;34933;40.968;14.538;2023-12-04T08:02:29;10.00;99.90
48768;DHT22;34933;40.968;14.538;2023-12-04T08:05:14;10.10;99.90
48768;DHT22;34933;40.968;14.538;2023-12-04T08:07:58;10.30;99.90
48768;DHT22;34933;40.968;14.538;2023-12-04T08:10:43;10.40;99.90
48768;DHT22;34933;40.968;14.538;2023-12-04T08:13:28;10.50;99.90
48768;DHT22;34933;40.968;14.538;2023-12-04T08:16:13;10.60;99.90
48768;DHT22;34933;40.968;14.538;2023-12-04T08:18:59;10.70;99.90
48768;DHT22;34933;40.968;14.538;2023-12-04T08:21:43;10.80;99.90
48768;DHT22;34933;40.968;14.538;2023-12-04T08:24:28;10.90;99.90
48768;DHT22;34933;40.968;14.538;2023-12-04T08:27:13;11.10;99.90
48768;DHT22;34933;40.968;14.538;2023-12-04T08:29:57;11.30;99.90
48768;DHT22;34933;40.968;14.538;2023-12-04T08:32:43;11.40;99.90
48768;DHT22;34933;40.968;14.538;2023-12-04T08:35:27;11.50;99.90
48768;DHT22;34933;40.968;14.538;2023-12-04T08:38:12;11.60;99.90
48768;DHT22;34933;40.968;14.538;2023-12-04T08:40:56;11.60;99.90
48768;DHT22;34933;40.968;14.538;2023-12-04T08:43:42;11.70;99.90
48768;DHT22;34933;40.968;14.538;2023-12-04T08:46:26;11.90;99.90
48768;DHT22;34933;40.968;14.538;2023-12-04T08:49:11;12.00;99.90
48768;DHT22;34933;40.968;14.538;2023-12-04T08:51:55;12.10;99.90
48768;DHT22;34933;40.968;14.538;2023-12-04T08:54:40;12.30;99.90
48768;DHT22;34933;40.968;14.538;2023-12-04T08:57:27;12.40;99.90
48768;DHT22;34933;40.968;14.538;2023-12-04T09:00:13;12.60;99.90
48768;DHT22;34933;40.968;14.538;2023-12-04T09:02:58;12.80;99.90
48768;DHT22;34933;40.968;14.538;2023-12-04T09:05:43;12.90;99.90
48768;DHT22;34933;40.968;14.538;2023-12-04T09:08:28;13.00;99.90
48768;DHT22;34933;40.968;14.538;2023-12-04T09:11:12;13.10;99.90
48768;DHT22;34933;40.968;14.538;2023-12-04T09:13:57;13.00;99.90
48768;DHT22;34933;40.968;14.538;2023-12-04T09:16:42;12.80;99.90
48768;DHT22;34933;40.968;14.538;2023-12-04T09:19:27;12.60;99.90
48768;DHT22;34933;40.968;14.538;2023-12-04T09:22:12;12.40;99.90
48768;DHT22;34933;40.968;14.538;2023-12-04T09:24:57;12.40;99.90
48768;DHT22;34933;40.968;14.538;2023-12-04T09:27:42;12.50;99.90
48768;DHT22;34933;40.968;14.538;2023-12-04T09:30:26;12.60;99.90
48768;DHT22;34933;40.968;14.538;2023-12-04T09:33:11;12.70;99.90
48768;DHT22;34933;40.968;14.538;2023-12-04T09:35:55;12.80;99.90
48768;DHT22;34933;40.968;14.538;2023-12-04T09:38:40;12.90;99.90
48768;DHT22;34933;40.968;14.538;2023-12-04T09:41:25;12.90;99.90
48768;DHT22;34933;40.968;14.538;2023-12-04T09:44:10;13.10;99.90
48768;DHT22;34933;40.968;14.538;2023-12-04T09:46:55;13.10;99.90
48768;DHT22;34933;40.968;14.538;2023-12-04T09:49:40;13.20;99.90
48768;DHT22;34933;40.968;14.538;2023-12-04T09:52:26;13.40;99.90
48768;DHT22;34933;40.968;14.538;2023-12-04T09:55:11;13.60;99.90
48768;DHT22;34933;40.968;14.538;2023-12-04T09:57:57;13.60;99.90
48768;DHT22;34933;40.968;14.538;2023-12-04T10:00:43;13.70;99.90
48768;DHT22;34933;40.968;14.538;2023-12-04T10:03:27;13.80;99.90
48768;DHT22;34933;40.968;14.538;2023-12-04T10:06:17;13.80;99.90
48768;DHT22;34933;40.968;14.538;2023-12-04T10:09:01;13.80;99.90
48768;DHT22;34933;40.968;14.538;2023-12-04T10:11:47;13.90;99.90
48768;DHT22;34933;40.968;14.538;2023-12-04T10:14:32;13.90;99.90
48768;DHT22;34933;40.968;14.538;2023-12-04T10:17:16;14.10;99.90
48768;DHT22;34933;40.968;14.538;2023-12-04T10:23:00;14.60;99.90
48768;DHT22;34933;40.968;14.538;2023-12-04T10:25:45;14.80;99.90
48768;DHT22;34933;40.968;14.538;2023-12-04T10:28:30;15.00;99.90
48768;DHT22;34933;40.968;14.538;2023-12-04T10:31:17;15.10;99.90
48768;DHT22;34933;40.968;14.538;2023-12-04T10:34:02;15.00;99.90
48768;DHT22;34933;40.968;14.538;2023-12-04T10:36:48;14.80;99.90
48768;DHT22;34933;40.968;14.538;2023-12-04T10:39:46;14.70;99.90
48768;DHT22;34933;40.968;14.538;2023-12-04T10:42:31;14.80;99.90
48768;DHT22;34933;40.968;14.538;2023-12-04T10:45:16;14.80;99.90
48768;DHT22;34933;40.968;14.538;2023-12-04T10:48:01;14.90;99.90
48768;DHT22;34933;40.968;14.538;2023-12-04T10:50:49;15.20;99.90
48768;DHT22;34933;40.968;14.538;2023-12-04T10:53:33;15.30;99.90
48768;DHT22;34933;40.968;14.538;2023-12-04T10:56:33;15.40;99.90
48768;DHT22;34933;40.968;14.538;2023-12-04T10:59:26;15.60;99.90
48768;DHT22;34933;40.968;14.538;2023-12-04T11:02:18;15.80;99.90
48768;DHT22;34933;40.968;14.538;2023-12-04T11:05:13;16.00;99.90
48768;DHT22;34933;40.968;14.538;2023-12-04T11:08:02;15.90;99.80
48768;DHT22;34933;40.968;14.538;2023-12-04T11:13:37;15.60;99.50
48768;DHT22;34933;40.968;14.538;2023-12-04T11:19:28;15.90;98.70
48768;DHT22;34933;40.968;14.538;2023-12-04T11:22:14;16.20;98.70
48768;DHT22;34933;40.968;14.538;2023-12-04T11:24:59;16.10;98.00
48768;DHT22;34933;40.968;14.538;2023-12-04T11:27:45;15.90;98.90
48768;DHT22;34933;40.968;14.538;2023-12-04T11:30:30;16.00;98.90
48768;DHT22;34933;40.968;14.538;2023-12-04T11:33:14;16.30;99.20
48768;DHT22;34933;40.968;14.538;2023-12-04T11:36:09;16.70;98.80
48768;DHT22;34933;40.968;14.538;2023-12-04T11:38:54;16.70;98.60
48768;DHT22;34933;40.968;14.538;2023-12-04T11:41:41;16.60;98.90
48768;DHT22;34933;40.968;14.538;2023-12-04T11:44:27;16.50;98.70
48768;DHT22;34933;40.968;14.538;2023-12-04T11:47:11;16.50;98.90
48768;DHT22;34933;40.968;14.538;2023-12-04T11:49:57;16.10;99.00
48768;DHT22;34933;40.968;14.538;2023-12-04T11:52:42;15.90;98.30
48768;DHT22;34933;40.968;14.538;2023-12-04T11:55:26;16.00;98.30
48768;DHT22;34933;40.968;14.538;2023-12-04T11:58:12;15.90;98.30
48768;DHT22;34933;40.968;14.538;2023-12-04T12:00:56;15.90;98.30
48768;DHT22;34933;40.968;14.538;2023-12-04T12:03:42;15.80;98.50
48768;DHT22;34933;40.968;14.538;2023-12-04T12:06:27;15.90;98.30
48768;DHT22;34933;40.968;14.538;2023-12-04T12:09:12;16.20;97.90
48768;DHT22;34933;40.968;14.538;2023-12-04T12:11:56;16.50;97.50
48768;DHT22;34933;40.968;14.538;2023-12-04T12:14:43;16.60;97.20
48768;DHT22;34933;40.968;14.538;2023-12-04T12:17:27;16.60;97.50
48768;DHT22;34933;40.968;14.538;2023-12-04T12:20:14;16.50;97.10
48768;DHT22;34933;40.968;14.538;2023-12-04T12:22:58;16.50;97.40
48768;DHT22;34933;40.968;14.538;2023-12-04T12:25:43;16.50;98.30
48768;DHT22;34933;40.968;14.538;2023-12-04T12:28:28;16.30;97.60
48768;DHT22;34933;40.968;14.538;2023-12-04T12:31:14;16.40;97.60
48768;DHT22;34933;40.968;14.538;2023-12-04T12:33:58;16.50;97.40
48768;DHT22;34933;40.968;14.538;2023-12-04T12:36:43;16.50;97.60
48768;DHT22;34933;40.968;14.538;2023-12-04T12:39:28;16.60;97.00
48768;DHT22;34933;40.968;14.538;2023-12-04T12:42:21;16.90;97.00
48768;DHT22;34933;40.968;14.538;2023-12-04T12:45:07;17.50;96.50
48768;DHT22;34933;40.968;14.538;2023-12-04T12:47:56;17.50;95.90
48768;DHT22;34933;40.968;14.538;2023-12-04T12:50:44;17.50;96.10
48768;DHT22;34933;40.968;14.538;2023-12-04T12:53:32;17.80;95.40
48768;DHT22;34933;40.968;14.538;2023-12-04T12:56:17;17.90;95.60
48768;DHT22;34933;40.968;14.538;2023-12-04T12:59:01;18.30;95.90
48768;DHT22;34933;40.968;14.538;2023-12-04T13:01:48;18.70;95.60
48768;DHT22;34933;40.968;14.538;2023-12-04T13:04:42;18.70;95.30
48768;DHT22;34933;40.968;14.538;2023-12-04T13:07:27;18.60;95.50
48768;DHT22;34933;40.968;14.538;2023-12-04T13:10:12;18.20;95.10
48768;DHT22;34933;40.968;14.538;2023-12-04T13:12:57;17.90;95.60
48768;DHT22;34933;40.968;14.538;2023-12-04T13:15:44;18.00;96.00
48768;DHT22;34933;40.968;14.538;2023-12-04T13:18:28;18.20;96.00
48768;DHT22;34933;40.968;14.538;2023-12-04T13:21:15;18.10;95.30
48768;DHT22;34933;40.968;14.538;2023-12-04T13:24:00;18.00;94.90
48768;DHT22;34933;40.968;14.538;2023-12-04T13:26:45;17.70;96.00
48768;DHT22;34933;40.968;14.538;2023-12-04T13:29:29;17.50;95.60
48768;DHT22;34933;40.968;14.538;2023-12-04T13:32:14;17.30;96.30
48768;DHT22;34933;40.968;14.538;2023-12-04T13:34:58;17.30;95.80
48768;DHT22;34933;40.968;14.538;2023-12-04T13:37:43;17.20;95.60
48768;DHT22;34933;40.968;14.538;2023-12-04T13:40:27;17.60;95.50
48768;DHT22;34933;40.968;14.538;2023-12-04T13:43:12;18.00;95.30
48768;DHT22;34933;40.968;14.538;2023-12-04T13:46:15;18.50;95.00
48768;DHT22;34933;40.968;14.538;2023-12-04T13:49:00;18.90;95.10
48768;DHT22;34933;40.968;14.538;2023-12-04T13:51:45;19.00;95.30
48768;DHT22;34933;40.968;14.538;2023-12-04T13:54:30;19.00;94.80
48768;DHT22;34933;40.968;14.538;2023-12-04T13:57:28;19.10;94.40
48768;DHT22;34933;40.968;14.538;2023-12-04T14:00:17;19.10;94.20
48768;DHT22;34933;40.968;14.538;2023-12-04T14:03:02;19.20;94.10
48768;DHT22;34933;40.968;14.538;2023-12-04T14:05:51;19.30;93.80
48768;DHT22;34933;40.968;14.538;2023-12-04T14:08:35;19.60;94.10
48768;DHT22;34933;40.968;14.538;2023-12-04T14:11:21;19.80;93.40
48768;DHT22;34933;40.968;14.538;2023-12-04T14:14:06;20.00;93.10
48768;DHT22;34933;40.968;14.538;2023-12-04T14:16:50;20.50;93.10
48768;DHT22;34933;40.968;14.538;2023-12-04T14:19:35;20.90;92.90
48768;DHT22;34933;40.968;14.538;2023-12-04T14:22:22;20.40;93.40
48768;DHT22;34933;40.968;14.538;2023-12-04T14:25:07;19.90;93.50
48768;DHT22;34933;40.968;14.538;2023-12-04T14:27:52;19.30;94.00
48768;DHT22;34933;40.968;14.538;2023-12-04T14:30:37;19.20;94.50
48768;DHT22;34933;40.968;14.538;2023-12-04T14:33:22;18.70;94.70
48768;DHT22;34933;40.968;14.538;2023-12-04T14:36:06;18.10;94.70
48768;DHT22;34933;40.968;14.538;2023-12-04T14:38:51;17.30;95.40
48768;DHT22;34933;40.968;14.538;2023-12-04T14:41:36;16.70;96.20
48768;DHT22;34933;40.968;14.538;2023-12-04T14:44:21;16.20;96.70
48768;DHT22;34933;40.968;14.538;2023-12-04T14:47:05;15.80;97.50
48768;DHT22;34933;40.968;14.538;2023-12-04T14:49:52;15.60;97.40
48768;DHT22;34933;40.968;14.538;2023-12-04T14:52:39;15.30;97.90
48768;DHT22;34933;40.968;14.538;2023-12-04T14:55:31;15.00;98.30
48768;DHT22;34933;40.968;14.538;2023-12-04T14:58:34;14.80;98.80
48768;DHT22;34933;40.968;14.538;2023-12-04T15:01:27;14.50;98.60
48768;DHT22;34933;40.968;14.538;2023-12-04T15:04:37;14.40;98.60
48768;DHT22;34933;40.968;14.538;2023-12-04T15:07:41;14.30;99.10
48768;DHT22;34933;40.968;14.538;2023-12-04T15:10:51;14.20;99.30
48768;DHT22;34933;40.968;14.538;2023-12-04T15:13:54;14.00;99.70
48768;DHT22;34933;40.968;14.538;2023-12-04T15:16:59;13.80;99.90
48768;DHT22;34933;40.968;14.538;2023-12-04T15:20:09;13.80;99.90
48768;DHT22;34933;40.968;14.538;2023-12-04T15:22:54;13.50;99.90
48768;DHT22;34933;40.968;14.538;2023-12-04T15:25:39;13.40;99.90
48768;DHT22;34933;40.968;14.538;2023-12-04T15:28:24;13.30;99.90
48768;DHT22;34933;40.968;14.538;2023-12-04T15:31:12;13.20;99.90
48768;DHT22;34933;40.968;14.538;2023-12-04T15:33:57;13.10;99.90
48768;DHT22;34933;40.968;14.538;2023-12-04T15:36:41;13.00;99.90
48768;DHT22;34933;40.968;14.538;2023-12-04T15:39:26;12.80;99.90
48768;DHT22;34933;40.968;14.538;2023-12-04T15:42:10;12.80;99.90
48768;DHT22;34933;40.968;14.538;2023-12-04T15:44:55;12.60;99.90
48768;DHT22;34933;40.968;14.538;2023-12-04T15:47:39;12.50;99.90
48768;DHT22;34933;40.968;14.538;2023-12-04T15:50:24;12.40;99.90
48768;DHT22;34933;40.968;14.538;2023-12-04T15:53:09;12.30;99.90
48768;DHT22;34933;40.968;14.538;2023-12-04T15:55:54;12.50;99.90
48768;DHT22;34933;40.968;14.538;2023-12-04T15:58:38;12.60;99.90
48768;DHT22;34933;40.968;14.538;2023-12-04T16:01:23;12.50;99.90
48768;DHT22;34933;40.968;14.538;2023-12-04T16:04:08;12.40;99.90
48768;DHT22;34933;40.968;14.538;2023-12-04T16:06:53;12.40;99.90
48768;DHT22;34933;40.968;14.538;2023-12-04T16:09:37;12.30;99.90
48768;DHT22;34933;40.968;14.538;2023-12-04T16:12:22;12.30;99.90
48768;DHT22;34933;40.968;14.538;2023-12-04T16:15:08;12.30;99.90
48768;DHT22;34933;40.968;14.538;2023-12-04T16:17:53;12.30;99.90
48768;DHT22;34933;40.968;14.538;2023-12-04T16:20:37;12.30;99.90
48768;DHT22;34933;40.968;14.538;2023-12-04T16:23:22;12.20;99.90
48768;DHT22;34933;40.968;14.538;2023-12-04T16:26:07;12.20;99.90
48768;DHT22;34933;40.968;14.538;2023-12-04T16:28:52;12.10;99.90
48768;DHT22;34933;40.968;14.538;2023-12-04T16:31:36;12.10;99.90
48768;DHT22;34933;40.968;14.538;2023-12-04T16:34:21;12.00;99.90
48768;DHT22;34933;40.968;14.538;2023-12-04T16:37:05;11.90;99.90
48768;DHT22;34933;40.968;14.538;2023-12-04T16:39:50;11.90;99.90
48768;DHT22;34933;40.968;14.538;2023-12-04T16:42:34;11.80;99.90
48768;DHT22;34933;40.968;14.538;2023-12-04T16:45:19;11.70;99.90
48768;DHT22;34933;40.968;14.538;2023-12-04T16:48:04;11.60;99.90
48768;DHT22;34933;40.968;14.538;2023-12-04T16:50:49;11.60;99.90
48768;DHT22;34933;40.968;14.538;2023-12-04T16:53:33;11.50;99.90
48768;DHT22;34933;40.968;14.538;2023-12-04T16:56:18;11.40;99.90
48768;DHT22;34933;40.968;14.538;2023-12-04T16:59:03;11.30;99.90
48768;DHT22;34933;40.968;14.538;2023-12-04T17:01:47;11.20;99.90
48768;DHT22;34933;40.968;14.538;2023-12-04T17:04:32;11.10;99.90
48768;DHT22;34933;40.968;14.538;2023-12-04T17:07:16;11.00;99.90
48768;DHT22;34933;40.968;14.538;2023-12-04T17:10:01;10.80;99.90
48768;DHT22;34933;40.968;14.538;2023-12-04T17:12:46;10.80;99.90
48768;DHT22;34933;40.968;14.538;2023-12-04T17:15:31;10.60;99.90
48768;DHT22;34933;40.968;14.538;2023-12-04T17:18:16;10.50;99.90
48768;DHT22;34933;40.968;14.538;2023-12-04T17:21:00;10.70;99.90
48768;DHT22;34933;40.968;14.538;2023-12-04T17:23:45;10.70;99.90
48768;DHT22;34933;40.968;14.538;2023-12-04T17:26:31;10.50;99.90